<?xml version="1.0" encoding="UTF-8" standalone="no" ?>
<gpx xmlns="http://www.topografix.com/GPX/1/1" xmlns:xsi="http://www.w3.org/2001/XMLSchema-instance" xsi:schemaLocation="http://www.topografix.com/GPX/1/1 http://www.topografix.com/GPX/1/1/gpx.xsd" version="1.1" creator="VisuGPX - https://www.visugpx.com">
  <metadata>
    <name>Autour d\'Echalas</name>
    <desc><![CDATA[A 25 km de Lyon, y a personne, que demander de plus...]]></desc>
  </metadata>
  <trk>
    <name><![CDATA[Sequence 3]]></name>
    <trkseg>
      <trkpt lat="45.54709" lon="4.74391">
        <ele>478</ele>
        <time>2015-05-27T13:22:21Z</time>
      </trkpt>
      <trkpt lat="45.54709" lon="4.74391">
        <ele>478</ele>
        <time>2015-05-27T13:22:24Z</time>
      </trkpt>
      <trkpt lat="45.54708" lon="4.74391">
        <ele>478</ele>
        <time>2015-05-27T13:22:27Z</time>
      </trkpt>
      <trkpt lat="45.54707" lon="4.74392">
        <ele>478</ele>
        <time>2015-05-27T13:22:33Z</time>
      </trkpt>
      <trkpt lat="45.54707" lon="4.74392">
        <ele>479</ele>
        <time>2015-05-27T13:22:35Z</time>
      </trkpt>
      <trkpt lat="45.54707" lon="4.74392">
        <ele>479</ele>
        <time>2015-05-27T13:22:38Z</time>
      </trkpt>
      <trkpt lat="45.54707" lon="4.74392">
        <ele>479</ele>
        <time>2015-05-27T13:22:41Z</time>
      </trkpt>
      <trkpt lat="45.54707" lon="4.74392">
        <ele>479</ele>
        <time>2015-05-27T13:22:46Z</time>
      </trkpt>
      <trkpt lat="45.54707" lon="4.74392">
        <ele>479</ele>
        <time>2015-05-27T13:22:47Z</time>
      </trkpt>
      <trkpt lat="45.54706" lon="4.74392">
        <ele>479</ele>
        <time>2015-05-27T13:22:50Z</time>
      </trkpt>
      <trkpt lat="45.54706" lon="4.74392">
        <ele>479</ele>
        <time>2015-05-27T13:22:53Z</time>
      </trkpt>
      <trkpt lat="45.54707" lon="4.74392">
        <ele>476</ele>
        <time>2015-05-27T13:22:56Z</time>
      </trkpt>
      <trkpt lat="45.54708" lon="4.74393">
        <ele>477</ele>
        <time>2015-05-27T13:23:01Z</time>
      </trkpt>
      <trkpt lat="45.54708" lon="4.74393">
        <ele>477</ele>
        <time>2015-05-27T13:23:04Z</time>
      </trkpt>
      <trkpt lat="45.54708" lon="4.74392">
        <ele>477</ele>
        <time>2015-05-27T13:23:07Z</time>
      </trkpt>
      <trkpt lat="45.54707" lon="4.74392">
        <ele>477</ele>
        <time>2015-05-27T13:23:11Z</time>
      </trkpt>
      <trkpt lat="45.54707" lon="4.74392">
        <ele>477</ele>
        <time>2015-05-27T13:23:13Z</time>
      </trkpt>
      <trkpt lat="45.54707" lon="4.74392">
        <ele>477</ele>
        <time>2015-05-27T13:23:16Z</time>
      </trkpt>
      <trkpt lat="45.54707" lon="4.74392">
        <ele>477</ele>
        <time>2015-05-27T13:23:19Z</time>
      </trkpt>
      <trkpt lat="45.54707" lon="4.74392">
        <ele>477</ele>
        <time>2015-05-27T13:23:22Z</time>
      </trkpt>
      <trkpt lat="45.54707" lon="4.74392">
        <ele>477</ele>
        <time>2015-05-27T13:23:25Z</time>
      </trkpt>
      <trkpt lat="45.54707" lon="4.74392">
        <ele>477</ele>
        <time>2015-05-27T13:23:28Z</time>
      </trkpt>
      <trkpt lat="45.54707" lon="4.74391">
        <ele>478</ele>
        <time>2015-05-27T13:23:31Z</time>
      </trkpt>
      <trkpt lat="45.54708" lon="4.74392">
        <ele>477</ele>
        <time>2015-05-27T13:23:34Z</time>
      </trkpt>
      <trkpt lat="45.54706" lon="4.74394">
        <ele>477</ele>
        <time>2015-05-27T13:23:38Z</time>
      </trkpt>
      <trkpt lat="45.54706" lon="4.74405">
        <ele>480</ele>
        <time>2015-05-27T13:23:42Z</time>
      </trkpt>
      <trkpt lat="45.54707" lon="4.74412">
        <ele>482</ele>
        <time>2015-05-27T13:23:47Z</time>
      </trkpt>
      <trkpt lat="45.54707" lon="4.74414">
        <ele>482</ele>
        <time>2015-05-27T13:23:52Z</time>
      </trkpt>
      <trkpt lat="45.54708" lon="4.74415">
        <ele>480</ele>
        <time>2015-05-27T13:23:55Z</time>
      </trkpt>
      <trkpt lat="45.54709" lon="4.74416">
        <ele>480</ele>
        <time>2015-05-27T13:23:59Z</time>
      </trkpt>
      <trkpt lat="45.54709" lon="4.74416">
        <ele>481</ele>
        <time>2015-05-27T13:24:01Z</time>
      </trkpt>
      <trkpt lat="45.5471" lon="4.74417">
        <ele>481</ele>
        <time>2015-05-27T13:24:04Z</time>
      </trkpt>
      <trkpt lat="45.5471" lon="4.74417">
        <ele>481</ele>
        <time>2015-05-27T13:24:09Z</time>
      </trkpt>
      <trkpt lat="45.5471" lon="4.74417">
        <ele>481</ele>
        <time>2015-05-27T13:24:10Z</time>
      </trkpt>
      <trkpt lat="45.5471" lon="4.74417">
        <ele>480</ele>
        <time>2015-05-27T13:24:13Z</time>
      </trkpt>
      <trkpt lat="45.5471" lon="4.74417">
        <ele>480</ele>
        <time>2015-05-27T13:24:16Z</time>
      </trkpt>
      <trkpt lat="45.5471" lon="4.74417">
        <ele>480</ele>
        <time>2015-05-27T13:24:19Z</time>
      </trkpt>
      <trkpt lat="45.5471" lon="4.74417">
        <ele>480</ele>
        <time>2015-05-27T13:24:22Z</time>
      </trkpt>
      <trkpt lat="45.5471" lon="4.74417">
        <ele>480</ele>
        <time>2015-05-27T13:24:25Z</time>
      </trkpt>
      <trkpt lat="45.5471" lon="4.74417">
        <ele>480</ele>
        <time>2015-05-27T13:24:28Z</time>
      </trkpt>
      <trkpt lat="45.5471" lon="4.74417">
        <ele>480</ele>
        <time>2015-05-27T13:24:31Z</time>
      </trkpt>
      <trkpt lat="45.5471" lon="4.74417">
        <ele>481</ele>
        <time>2015-05-27T13:24:34Z</time>
      </trkpt>
      <trkpt lat="45.5471" lon="4.74417">
        <ele>480</ele>
        <time>2015-05-27T13:24:37Z</time>
      </trkpt>
      <trkpt lat="45.54711" lon="4.74418">
        <ele>480</ele>
        <time>2015-05-27T13:24:42Z</time>
      </trkpt>
      <trkpt lat="45.54711" lon="4.74418">
        <ele>480</ele>
        <time>2015-05-27T13:24:45Z</time>
      </trkpt>
      <trkpt lat="45.54711" lon="4.74418">
        <ele>480</ele>
        <time>2015-05-27T13:24:48Z</time>
      </trkpt>
      <trkpt lat="45.54711" lon="4.74417">
        <ele>480</ele>
        <time>2015-05-27T13:24:50Z</time>
      </trkpt>
      <trkpt lat="45.54711" lon="4.74417">
        <ele>480</ele>
        <time>2015-05-27T13:24:52Z</time>
      </trkpt>
      <trkpt lat="45.54711" lon="4.74419">
        <ele>479</ele>
        <time>2015-05-27T13:24:55Z</time>
      </trkpt>
      <trkpt lat="45.54715" lon="4.74425">
        <ele>480</ele>
        <time>2015-05-27T13:25:00Z</time>
      </trkpt>
      <trkpt lat="45.54714" lon="4.74438">
        <ele>481</ele>
        <time>2015-05-27T13:25:05Z</time>
      </trkpt>
      <trkpt lat="45.54719" lon="4.7446">
        <ele>478</ele>
        <time>2015-05-27T13:25:11Z</time>
      </trkpt>
      <trkpt lat="45.54722" lon="4.74493">
        <ele>476</ele>
        <time>2015-05-27T13:25:17Z</time>
      </trkpt>
      <trkpt lat="45.54726" lon="4.74511">
        <ele>472</ele>
        <time>2015-05-27T13:25:20Z</time>
      </trkpt>
      <trkpt lat="45.54733" lon="4.74539">
        <ele>469</ele>
        <time>2015-05-27T13:25:25Z</time>
      </trkpt>
      <trkpt lat="45.54738" lon="4.7458">
        <ele>467</ele>
        <time>2015-05-27T13:25:32Z</time>
      </trkpt>
      <trkpt lat="45.54743" lon="4.74605">
        <ele>471</ele>
        <time>2015-05-27T13:25:36Z</time>
      </trkpt>
      <trkpt lat="45.54746" lon="4.74634">
        <ele>471</ele>
        <time>2015-05-27T13:25:40Z</time>
      </trkpt>
      <trkpt lat="45.54755" lon="4.74697">
        <ele>466</ele>
        <time>2015-05-27T13:25:49Z</time>
      </trkpt>
      <trkpt lat="45.54756" lon="4.74703">
        <ele>464</ele>
        <time>2015-05-27T13:25:50Z</time>
      </trkpt>
      <trkpt lat="45.54755" lon="4.74735">
        <ele>463</ele>
        <time>2015-05-27T13:25:55Z</time>
      </trkpt>
      <trkpt lat="45.54758" lon="4.74775">
        <ele>462</ele>
        <time>2015-05-27T13:26:01Z</time>
      </trkpt>
      <trkpt lat="45.5476" lon="4.74802">
        <ele>463</ele>
        <time>2015-05-27T13:26:05Z</time>
      </trkpt>
      <trkpt lat="45.54762" lon="4.74832">
        <ele>463</ele>
        <time>2015-05-27T13:26:10Z</time>
      </trkpt>
      <trkpt lat="45.54774" lon="4.74886">
        <ele>462</ele>
        <time>2015-05-27T13:26:18Z</time>
      </trkpt>
      <trkpt lat="45.54789" lon="4.74924">
        <ele>463</ele>
        <time>2015-05-27T13:26:22Z</time>
      </trkpt>
      <trkpt lat="45.54801" lon="4.74953">
        <ele>461</ele>
        <time>2015-05-27T13:26:25Z</time>
      </trkpt>
      <trkpt lat="45.54823" lon="4.75033">
        <ele>460</ele>
        <time>2015-05-27T13:26:32Z</time>
      </trkpt>
      <trkpt lat="45.54829" lon="4.75058">
        <ele>460</ele>
        <time>2015-05-27T13:26:35Z</time>
      </trkpt>
      <trkpt lat="45.54832" lon="4.75105">
        <ele>461</ele>
        <time>2015-05-27T13:26:40Z</time>
      </trkpt>
      <trkpt lat="45.54829" lon="4.75148">
        <ele>459</ele>
        <time>2015-05-27T13:26:46Z</time>
      </trkpt>
      <trkpt lat="45.54829" lon="4.75176">
        <ele>460</ele>
        <time>2015-05-27T13:26:50Z</time>
      </trkpt>
      <trkpt lat="45.54822" lon="4.75228">
        <ele>451</ele>
        <time>2015-05-27T13:26:57Z</time>
      </trkpt>
      <trkpt lat="45.54814" lon="4.75243">
        <ele>451</ele>
        <time>2015-05-27T13:27:00Z</time>
      </trkpt>
      <trkpt lat="45.54829" lon="4.75271">
        <ele>445</ele>
        <time>2015-05-27T13:27:06Z</time>
      </trkpt>
      <trkpt lat="45.54858" lon="4.7531">
        <ele>443</ele>
        <time>2015-05-27T13:27:13Z</time>
      </trkpt>
      <trkpt lat="45.54877" lon="4.75323">
        <ele>432</ele>
        <time>2015-05-27T13:27:19Z</time>
      </trkpt>
      <trkpt lat="45.54881" lon="4.75324">
        <ele>431</ele>
        <time>2015-05-27T13:27:20Z</time>
      </trkpt>
      <trkpt lat="45.54902" lon="4.75326">
        <ele>429</ele>
        <time>2015-05-27T13:27:25Z</time>
      </trkpt>
      <trkpt lat="45.54927" lon="4.75327">
        <ele>427</ele>
        <time>2015-05-27T13:27:30Z</time>
      </trkpt>
      <trkpt lat="45.54954" lon="4.75333">
        <ele>426</ele>
        <time>2015-05-27T13:27:35Z</time>
      </trkpt>
      <trkpt lat="45.54985" lon="4.75345">
        <ele>419</ele>
        <time>2015-05-27T13:27:40Z</time>
      </trkpt>
      <trkpt lat="45.55012" lon="4.75371">
        <ele>417</ele>
        <time>2015-05-27T13:27:45Z</time>
      </trkpt>
      <trkpt lat="45.55033" lon="4.75409">
        <ele>413</ele>
        <time>2015-05-27T13:27:50Z</time>
      </trkpt>
      <trkpt lat="45.55034" lon="4.75438">
        <ele>412</ele>
        <time>2015-05-27T13:27:55Z</time>
      </trkpt>
      <trkpt lat="45.5501" lon="4.75432">
        <ele>411</ele>
        <time>2015-05-27T13:28:00Z</time>
      </trkpt>
      <trkpt lat="45.54982" lon="4.75422">
        <ele>410</ele>
        <time>2015-05-27T13:28:05Z</time>
      </trkpt>
      <trkpt lat="45.54954" lon="4.75412">
        <ele>410</ele>
        <time>2015-05-27T13:28:10Z</time>
      </trkpt>
      <trkpt lat="45.54923" lon="4.75412">
        <ele>407</ele>
        <time>2015-05-27T13:28:15Z</time>
      </trkpt>
      <trkpt lat="45.54896" lon="4.75418">
        <ele>407</ele>
        <time>2015-05-27T13:28:20Z</time>
      </trkpt>
      <trkpt lat="45.54875" lon="4.75417">
        <ele>406</ele>
        <time>2015-05-27T13:28:25Z</time>
      </trkpt>
      <trkpt lat="45.54852" lon="4.75414">
        <ele>405</ele>
        <time>2015-05-27T13:28:30Z</time>
      </trkpt>
      <trkpt lat="45.54833" lon="4.75407">
        <ele>402</ele>
        <time>2015-05-27T13:28:35Z</time>
      </trkpt>
      <trkpt lat="45.54787" lon="4.75408">
        <ele>402</ele>
        <time>2015-05-27T13:28:43Z</time>
      </trkpt>
      <trkpt lat="45.54757" lon="4.75411">
        <ele>403</ele>
        <time>2015-05-27T13:28:47Z</time>
      </trkpt>
      <trkpt lat="45.54731" lon="4.75406">
        <ele>402</ele>
        <time>2015-05-27T13:28:50Z</time>
      </trkpt>
      <trkpt lat="45.54665" lon="4.75358">
        <ele>401</ele>
        <time>2015-05-27T13:28:58Z</time>
      </trkpt>
      <trkpt lat="45.54655" lon="4.75345">
        <ele>398</ele>
        <time>2015-05-27T13:29:00Z</time>
      </trkpt>
      <trkpt lat="45.54631" lon="4.75301">
        <ele>392</ele>
        <time>2015-05-27T13:29:05Z</time>
      </trkpt>
      <trkpt lat="45.54603" lon="4.7526">
        <ele>391</ele>
        <time>2015-05-27T13:29:10Z</time>
      </trkpt>
      <trkpt lat="45.54587" lon="4.75244">
        <ele>390</ele>
        <time>2015-05-27T13:29:15Z</time>
      </trkpt>
      <trkpt lat="45.54577" lon="4.75243">
        <ele>391</ele>
        <time>2015-05-27T13:29:20Z</time>
      </trkpt>
      <trkpt lat="45.54566" lon="4.75244">
        <ele>393</ele>
        <time>2015-05-27T13:29:25Z</time>
      </trkpt>
      <trkpt lat="45.54549" lon="4.75246">
        <ele>393</ele>
        <time>2015-05-27T13:29:31Z</time>
      </trkpt>
      <trkpt lat="45.54524" lon="4.7525">
        <ele>392</ele>
        <time>2015-05-27T13:29:35Z</time>
      </trkpt>
      <trkpt lat="45.54491" lon="4.75251">
        <ele>388</ele>
        <time>2015-05-27T13:29:42Z</time>
      </trkpt>
      <trkpt lat="45.54475" lon="4.75242">
        <ele>385</ele>
        <time>2015-05-27T13:29:46Z</time>
      </trkpt>
      <trkpt lat="45.54452" lon="4.75226">
        <ele>387</ele>
        <time>2015-05-27T13:29:54Z</time>
      </trkpt>
      <trkpt lat="45.54446" lon="4.75224">
        <ele>386</ele>
        <time>2015-05-27T13:29:57Z</time>
      </trkpt>
      <trkpt lat="45.54438" lon="4.75218">
        <ele>384</ele>
        <time>2015-05-27T13:30:00Z</time>
      </trkpt>
      <trkpt lat="45.54421" lon="4.75209">
        <ele>387</ele>
        <time>2015-05-27T13:30:05Z</time>
      </trkpt>
      <trkpt lat="45.54408" lon="4.75201">
        <ele>387</ele>
        <time>2015-05-27T13:30:10Z</time>
      </trkpt>
      <trkpt lat="45.54396" lon="4.75175">
        <ele>382</ele>
        <time>2015-05-27T13:30:15Z</time>
      </trkpt>
      <trkpt lat="45.54384" lon="4.75151">
        <ele>384</ele>
        <time>2015-05-27T13:30:21Z</time>
      </trkpt>
      <trkpt lat="45.54384" lon="4.7513">
        <ele>384</ele>
        <time>2015-05-27T13:30:25Z</time>
      </trkpt>
      <trkpt lat="45.54381" lon="4.75107">
        <ele>389</ele>
        <time>2015-05-27T13:30:30Z</time>
      </trkpt>
      <trkpt lat="45.5438" lon="4.75083">
        <ele>386</ele>
        <time>2015-05-27T13:30:35Z</time>
      </trkpt>
      <trkpt lat="45.54379" lon="4.75083">
        <ele>392</ele>
        <time>2015-05-27T13:30:42Z</time>
      </trkpt>
      <trkpt lat="45.5438" lon="4.75083">
        <ele>391</ele>
        <time>2015-05-27T13:30:43Z</time>
      </trkpt>
      <trkpt lat="45.54382" lon="4.75079">
        <ele>384</ele>
        <time>2015-05-27T13:30:51Z</time>
      </trkpt>
      <trkpt lat="45.54382" lon="4.75079">
        <ele>384</ele>
        <time>2015-05-27T13:30:53Z</time>
      </trkpt>
      <trkpt lat="45.54383" lon="4.75076">
        <ele>382</ele>
        <time>2015-05-27T13:30:57Z</time>
      </trkpt>
      <trkpt lat="45.54382" lon="4.75078">
        <ele>380</ele>
        <time>2015-05-27T13:31:01Z</time>
      </trkpt>
      <trkpt lat="45.54379" lon="4.7508">
        <ele>379</ele>
        <time>2015-05-27T13:31:06Z</time>
      </trkpt>
      <trkpt lat="45.54371" lon="4.75092">
        <ele>372</ele>
        <time>2015-05-27T13:31:11Z</time>
      </trkpt>
      <trkpt lat="45.54346" lon="4.75132">
        <ele>373</ele>
        <time>2015-05-27T13:31:19Z</time>
      </trkpt>
      <trkpt lat="45.54341" lon="4.75138">
        <ele>374</ele>
        <time>2015-05-27T13:31:22Z</time>
      </trkpt>
      <trkpt lat="45.54336" lon="4.75146">
        <ele>380</ele>
        <time>2015-05-27T13:31:26Z</time>
      </trkpt>
      <trkpt lat="45.54325" lon="4.7515">
        <ele>381</ele>
        <time>2015-05-27T13:31:31Z</time>
      </trkpt>
      <trkpt lat="45.54309" lon="4.75159">
        <ele>377</ele>
        <time>2015-05-27T13:31:36Z</time>
      </trkpt>
      <trkpt lat="45.54299" lon="4.75179">
        <ele>372</ele>
        <time>2015-05-27T13:31:43Z</time>
      </trkpt>
      <trkpt lat="45.543" lon="4.75182">
        <ele>371</ele>
        <time>2015-05-27T13:31:46Z</time>
      </trkpt>
      <trkpt lat="45.54294" lon="4.75188">
        <ele>375</ele>
        <time>2015-05-27T13:31:51Z</time>
      </trkpt>
      <trkpt lat="45.54288" lon="4.75198">
        <ele>376</ele>
        <time>2015-05-27T13:31:58Z</time>
      </trkpt>
      <trkpt lat="45.54289" lon="4.75204">
        <ele>379</ele>
        <time>2015-05-27T13:32:01Z</time>
      </trkpt>
      <trkpt lat="45.5429" lon="4.7522">
        <ele>389</ele>
        <time>2015-05-27T13:32:09Z</time>
      </trkpt>
      <trkpt lat="45.54291" lon="4.75231">
        <ele>388</ele>
        <time>2015-05-27T13:32:13Z</time>
      </trkpt>
      <trkpt lat="45.54292" lon="4.75238">
        <ele>386</ele>
        <time>2015-05-27T13:32:16Z</time>
      </trkpt>
      <trkpt lat="45.54291" lon="4.75249">
        <ele>388</ele>
        <time>2015-05-27T13:32:21Z</time>
      </trkpt>
      <trkpt lat="45.54291" lon="4.75261">
        <ele>390</ele>
        <time>2015-05-27T13:32:27Z</time>
      </trkpt>
      <trkpt lat="45.54292" lon="4.75283">
        <ele>388</ele>
        <time>2015-05-27T13:32:34Z</time>
      </trkpt>
      <trkpt lat="45.54292" lon="4.753">
        <ele>383</ele>
        <time>2015-05-27T13:32:40Z</time>
      </trkpt>
      <trkpt lat="45.54293" lon="4.75302">
        <ele>383</ele>
        <time>2015-05-27T13:32:42Z</time>
      </trkpt>
      <trkpt lat="45.54295" lon="4.75314">
        <ele>383</ele>
        <time>2015-05-27T13:32:48Z</time>
      </trkpt>
      <trkpt lat="45.54297" lon="4.75322">
        <ele>382</ele>
        <time>2015-05-27T13:32:51Z</time>
      </trkpt>
      <trkpt lat="45.54296" lon="4.75335">
        <ele>379</ele>
        <time>2015-05-27T13:32:57Z</time>
      </trkpt>
      <trkpt lat="45.54297" lon="4.75346">
        <ele>373</ele>
        <time>2015-05-27T13:33:03Z</time>
      </trkpt>
      <trkpt lat="45.543" lon="4.75357">
        <ele>373</ele>
        <time>2015-05-27T13:33:08Z</time>
      </trkpt>
      <trkpt lat="45.54303" lon="4.7537">
        <ele>372</ele>
        <time>2015-05-27T13:33:14Z</time>
      </trkpt>
      <trkpt lat="45.54304" lon="4.75379">
        <ele>369</ele>
        <time>2015-05-27T13:33:18Z</time>
      </trkpt>
      <trkpt lat="45.54308" lon="4.75386">
        <ele>369</ele>
        <time>2015-05-27T13:33:21Z</time>
      </trkpt>
      <trkpt lat="45.54317" lon="4.75403">
        <ele>372</ele>
        <time>2015-05-27T13:33:27Z</time>
      </trkpt>
      <trkpt lat="45.54321" lon="4.75414">
        <ele>372</ele>
        <time>2015-05-27T13:33:31Z</time>
      </trkpt>
      <trkpt lat="45.54327" lon="4.75435">
        <ele>371</ele>
        <time>2015-05-27T13:33:39Z</time>
      </trkpt>
      <trkpt lat="45.54327" lon="4.75443">
        <ele>370</ele>
        <time>2015-05-27T13:33:41Z</time>
      </trkpt>
      <trkpt lat="45.54328" lon="4.75456">
        <ele>368</ele>
        <time>2015-05-27T13:33:46Z</time>
      </trkpt>
      <trkpt lat="45.54335" lon="4.75465">
        <ele>368</ele>
        <time>2015-05-27T13:33:51Z</time>
      </trkpt>
      <trkpt lat="45.54346" lon="4.75471">
        <ele>378</ele>
        <time>2015-05-27T13:34:00Z</time>
      </trkpt>
      <trkpt lat="45.54347" lon="4.75471">
        <ele>380</ele>
        <time>2015-05-27T13:34:02Z</time>
      </trkpt>
      <trkpt lat="45.54355" lon="4.75478">
        <ele>381</ele>
        <time>2015-05-27T13:34:08Z</time>
      </trkpt>
      <trkpt lat="45.54356" lon="4.75482">
        <ele>381</ele>
        <time>2015-05-27T13:34:11Z</time>
      </trkpt>
      <trkpt lat="45.54361" lon="4.75493">
        <ele>381</ele>
        <time>2015-05-27T13:34:17Z</time>
      </trkpt>
      <trkpt lat="45.54362" lon="4.75502">
        <ele>381</ele>
        <time>2015-05-27T13:34:21Z</time>
      </trkpt>
      <trkpt lat="45.54362" lon="4.75518">
        <ele>383</ele>
        <time>2015-05-27T13:34:28Z</time>
      </trkpt>
      <trkpt lat="45.54363" lon="4.75524">
        <ele>388</ele>
        <time>2015-05-27T13:34:32Z</time>
      </trkpt>
      <trkpt lat="45.54362" lon="4.75535">
        <ele>385</ele>
        <time>2015-05-27T13:34:38Z</time>
      </trkpt>
      <trkpt lat="45.54363" lon="4.75541">
        <ele>386</ele>
        <time>2015-05-27T13:34:41Z</time>
      </trkpt>
      <trkpt lat="45.54364" lon="4.75548">
        <ele>387</ele>
        <time>2015-05-27T13:34:46Z</time>
      </trkpt>
      <trkpt lat="45.5436" lon="4.75566">
        <ele>388</ele>
        <time>2015-05-27T13:34:54Z</time>
      </trkpt>
      <trkpt lat="45.54359" lon="4.75571">
        <ele>389</ele>
        <time>2015-05-27T13:34:56Z</time>
      </trkpt>
      <trkpt lat="45.54358" lon="4.75579">
        <ele>394</ele>
        <time>2015-05-27T13:35:01Z</time>
      </trkpt>
      <trkpt lat="45.54358" lon="4.75584">
        <ele>397</ele>
        <time>2015-05-27T13:35:07Z</time>
      </trkpt>
      <trkpt lat="45.54358" lon="4.75586">
        <ele>400</ele>
        <time>2015-05-27T13:35:11Z</time>
      </trkpt>
      <trkpt lat="45.54357" lon="4.75596">
        <ele>399</ele>
        <time>2015-05-27T13:35:20Z</time>
      </trkpt>
      <trkpt lat="45.54356" lon="4.756">
        <ele>399</ele>
        <time>2015-05-27T13:35:22Z</time>
      </trkpt>
      <trkpt lat="45.54356" lon="4.75611">
        <ele>401</ele>
        <time>2015-05-27T13:35:28Z</time>
      </trkpt>
      <trkpt lat="45.54358" lon="4.75617">
        <ele>403</ele>
        <time>2015-05-27T13:35:32Z</time>
      </trkpt>
      <trkpt lat="45.54362" lon="4.75624">
        <ele>407</ele>
        <time>2015-05-27T13:35:36Z</time>
      </trkpt>
      <trkpt lat="45.54367" lon="4.75629">
        <ele>407</ele>
        <time>2015-05-27T13:35:41Z</time>
      </trkpt>
      <trkpt lat="45.54378" lon="4.75645">
        <ele>402</ele>
        <time>2015-05-27T13:35:49Z</time>
      </trkpt>
      <trkpt lat="45.54385" lon="4.75658">
        <ele>398</ele>
        <time>2015-05-27T13:35:54Z</time>
      </trkpt>
      <trkpt lat="45.54388" lon="4.75664">
        <ele>398</ele>
        <time>2015-05-27T13:35:56Z</time>
      </trkpt>
      <trkpt lat="45.54394" lon="4.75676">
        <ele>398</ele>
        <time>2015-05-27T13:36:01Z</time>
      </trkpt>
      <trkpt lat="45.54402" lon="4.75695">
        <ele>395</ele>
        <time>2015-05-27T13:36:07Z</time>
      </trkpt>
      <trkpt lat="45.54407" lon="4.75708">
        <ele>399</ele>
        <time>2015-05-27T13:36:11Z</time>
      </trkpt>
      <trkpt lat="45.5442" lon="4.75723">
        <ele>396</ele>
        <time>2015-05-27T13:36:17Z</time>
      </trkpt>
      <trkpt lat="45.54427" lon="4.75742">
        <ele>392</ele>
        <time>2015-05-27T13:36:23Z</time>
      </trkpt>
      <trkpt lat="45.54429" lon="4.75751">
        <ele>392</ele>
        <time>2015-05-27T13:36:26Z</time>
      </trkpt>
      <trkpt lat="45.54435" lon="4.75761">
        <ele>399</ele>
        <time>2015-05-27T13:36:32Z</time>
      </trkpt>
      <trkpt lat="45.54434" lon="4.75772">
        <ele>404</ele>
        <time>2015-05-27T13:36:37Z</time>
      </trkpt>
      <trkpt lat="45.54434" lon="4.75794">
        <ele>401</ele>
        <time>2015-05-27T13:36:45Z</time>
      </trkpt>
      <trkpt lat="45.54435" lon="4.75802">
        <ele>404</ele>
        <time>2015-05-27T13:36:50Z</time>
      </trkpt>
      <trkpt lat="45.54434" lon="4.75804">
        <ele>405</ele>
        <time>2015-05-27T13:36:51Z</time>
      </trkpt>
      <trkpt lat="45.54419" lon="4.75821">
        <ele>406</ele>
        <time>2015-05-27T13:37:00Z</time>
      </trkpt>
      <trkpt lat="45.54413" lon="4.75825">
        <ele>404</ele>
        <time>2015-05-27T13:37:03Z</time>
      </trkpt>
      <trkpt lat="45.54405" lon="4.75832">
        <ele>405</ele>
        <time>2015-05-27T13:37:08Z</time>
      </trkpt>
      <trkpt lat="45.544" lon="4.75837">
        <ele>406</ele>
        <time>2015-05-27T13:37:11Z</time>
      </trkpt>
      <trkpt lat="45.54394" lon="4.75844">
        <ele>409</ele>
        <time>2015-05-27T13:37:16Z</time>
      </trkpt>
      <trkpt lat="45.54385" lon="4.75854">
        <ele>409</ele>
        <time>2015-05-27T13:37:21Z</time>
      </trkpt>
      <trkpt lat="45.54376" lon="4.75867">
        <ele>408</ele>
        <time>2015-05-27T13:37:26Z</time>
      </trkpt>
      <trkpt lat="45.54367" lon="4.75881">
        <ele>411</ele>
        <time>2015-05-27T13:37:31Z</time>
      </trkpt>
      <trkpt lat="45.54364" lon="4.75889">
        <ele>415</ele>
        <time>2015-05-27T13:37:36Z</time>
      </trkpt>
      <trkpt lat="45.54358" lon="4.759">
        <ele>416</ele>
        <time>2015-05-27T13:37:41Z</time>
      </trkpt>
      <trkpt lat="45.54359" lon="4.75911">
        <ele>419</ele>
        <time>2015-05-27T13:37:47Z</time>
      </trkpt>
      <trkpt lat="45.5436" lon="4.75918">
        <ele>418</ele>
        <time>2015-05-27T13:37:51Z</time>
      </trkpt>
      <trkpt lat="45.54361" lon="4.75925">
        <ele>416</ele>
        <time>2015-05-27T13:37:56Z</time>
      </trkpt>
      <trkpt lat="45.54366" lon="4.75935">
        <ele>413</ele>
        <time>2015-05-27T13:38:01Z</time>
      </trkpt>
      <trkpt lat="45.54369" lon="4.75941">
        <ele>414</ele>
        <time>2015-05-27T13:38:06Z</time>
      </trkpt>
      <trkpt lat="45.54377" lon="4.75944">
        <ele>419</ele>
        <time>2015-05-27T13:38:11Z</time>
      </trkpt>
      <trkpt lat="45.54389" lon="4.75951">
        <ele>424</ele>
        <time>2015-05-27T13:38:19Z</time>
      </trkpt>
      <trkpt lat="45.54392" lon="4.75956">
        <ele>424</ele>
        <time>2015-05-27T13:38:21Z</time>
      </trkpt>
      <trkpt lat="45.54405" lon="4.75982">
        <ele>423</ele>
        <time>2015-05-27T13:38:30Z</time>
      </trkpt>
      <trkpt lat="45.54406" lon="4.75985">
        <ele>423</ele>
        <time>2015-05-27T13:38:31Z</time>
      </trkpt>
      <trkpt lat="45.54416" lon="4.76016">
        <ele>422</ele>
        <time>2015-05-27T13:38:40Z</time>
      </trkpt>
      <trkpt lat="45.54417" lon="4.76019">
        <ele>422</ele>
        <time>2015-05-27T13:38:41Z</time>
      </trkpt>
      <trkpt lat="45.54422" lon="4.76046">
        <ele>422</ele>
        <time>2015-05-27T13:38:46Z</time>
      </trkpt>
      <trkpt lat="45.54429" lon="4.76101">
        <ele>418</ele>
        <time>2015-05-27T13:38:55Z</time>
      </trkpt>
      <trkpt lat="45.54433" lon="4.7612">
        <ele>419</ele>
        <time>2015-05-27T13:38:59Z</time>
      </trkpt>
      <trkpt lat="45.54434" lon="4.76128">
        <ele>418</ele>
        <time>2015-05-27T13:39:01Z</time>
      </trkpt>
      <trkpt lat="45.54437" lon="4.76142">
        <ele>417</ele>
        <time>2015-05-27T13:39:06Z</time>
      </trkpt>
      <trkpt lat="45.54439" lon="4.7616">
        <ele>420</ele>
        <time>2015-05-27T13:39:13Z</time>
      </trkpt>
      <trkpt lat="45.54437" lon="4.76168">
        <ele>421</ele>
        <time>2015-05-27T13:39:16Z</time>
      </trkpt>
      <trkpt lat="45.54433" lon="4.76179">
        <ele>421</ele>
        <time>2015-05-27T13:39:21Z</time>
      </trkpt>
      <trkpt lat="45.54429" lon="4.76191">
        <ele>421</ele>
        <time>2015-05-27T13:39:26Z</time>
      </trkpt>
      <trkpt lat="45.54422" lon="4.76205">
        <ele>421</ele>
        <time>2015-05-27T13:39:31Z</time>
      </trkpt>
      <trkpt lat="45.54405" lon="4.76239">
        <ele>421</ele>
        <time>2015-05-27T13:39:40Z</time>
      </trkpt>
      <trkpt lat="45.54403" lon="4.76243">
        <ele>421</ele>
        <time>2015-05-27T13:39:41Z</time>
      </trkpt>
      <trkpt lat="45.54393" lon="4.7626">
        <ele>419</ele>
        <time>2015-05-27T13:39:46Z</time>
      </trkpt>
      <trkpt lat="45.54386" lon="4.76276">
        <ele>420</ele>
        <time>2015-05-27T13:39:51Z</time>
      </trkpt>
      <trkpt lat="45.54383" lon="4.76297">
        <ele>420</ele>
        <time>2015-05-27T13:39:56Z</time>
      </trkpt>
      <trkpt lat="45.54387" lon="4.7632">
        <ele>421</ele>
        <time>2015-05-27T13:40:01Z</time>
      </trkpt>
      <trkpt lat="45.54394" lon="4.76348">
        <ele>418</ele>
        <time>2015-05-27T13:40:07Z</time>
      </trkpt>
      <trkpt lat="45.54398" lon="4.76367">
        <ele>418</ele>
        <time>2015-05-27T13:40:11Z</time>
      </trkpt>
      <trkpt lat="45.544" lon="4.76392">
        <ele>417</ele>
        <time>2015-05-27T13:40:16Z</time>
      </trkpt>
      <trkpt lat="45.544" lon="4.76415">
        <ele>419</ele>
        <time>2015-05-27T13:40:21Z</time>
      </trkpt>
      <trkpt lat="45.54399" lon="4.76439">
        <ele>419</ele>
        <time>2015-05-27T13:40:26Z</time>
      </trkpt>
      <trkpt lat="45.54398" lon="4.7646">
        <ele>419</ele>
        <time>2015-05-27T13:40:31Z</time>
      </trkpt>
      <trkpt lat="45.54395" lon="4.76481">
        <ele>419</ele>
        <time>2015-05-27T13:40:36Z</time>
      </trkpt>
      <trkpt lat="45.54392" lon="4.76501">
        <ele>419</ele>
        <time>2015-05-27T13:40:41Z</time>
      </trkpt>
      <trkpt lat="45.54385" lon="4.76531">
        <ele>418</ele>
        <time>2015-05-27T13:40:47Z</time>
      </trkpt>
      <trkpt lat="45.54375" lon="4.76551">
        <ele>418</ele>
        <time>2015-05-27T13:40:51Z</time>
      </trkpt>
      <trkpt lat="45.54362" lon="4.76576">
        <ele>418</ele>
        <time>2015-05-27T13:40:56Z</time>
      </trkpt>
      <trkpt lat="45.54349" lon="4.76593">
        <ele>419</ele>
        <time>2015-05-27T13:41:01Z</time>
      </trkpt>
      <trkpt lat="45.54341" lon="4.76583">
        <ele>421</ele>
        <time>2015-05-27T13:41:06Z</time>
      </trkpt>
      <trkpt lat="45.54339" lon="4.76566">
        <ele>422</ele>
        <time>2015-05-27T13:41:11Z</time>
      </trkpt>
      <trkpt lat="45.54334" lon="4.76548">
        <ele>423</ele>
        <time>2015-05-27T13:41:16Z</time>
      </trkpt>
      <trkpt lat="45.5433" lon="4.7653">
        <ele>424</ele>
        <time>2015-05-27T13:41:21Z</time>
      </trkpt>
      <trkpt lat="45.54325" lon="4.76512">
        <ele>423</ele>
        <time>2015-05-27T13:41:26Z</time>
      </trkpt>
      <trkpt lat="45.54319" lon="4.76494">
        <ele>424</ele>
        <time>2015-05-27T13:41:31Z</time>
      </trkpt>
      <trkpt lat="45.54314" lon="4.76478">
        <ele>425</ele>
        <time>2015-05-27T13:41:36Z</time>
      </trkpt>
      <trkpt lat="45.54308" lon="4.76461">
        <ele>425</ele>
        <time>2015-05-27T13:41:41Z</time>
      </trkpt>
      <trkpt lat="45.54303" lon="4.76445">
        <ele>426</ele>
        <time>2015-05-27T13:41:46Z</time>
      </trkpt>
      <trkpt lat="45.54297" lon="4.76428">
        <ele>427</ele>
        <time>2015-05-27T13:41:51Z</time>
      </trkpt>
      <trkpt lat="45.54291" lon="4.76412">
        <ele>426</ele>
        <time>2015-05-27T13:41:56Z</time>
      </trkpt>
      <trkpt lat="45.54286" lon="4.76395">
        <ele>426</ele>
        <time>2015-05-27T13:42:01Z</time>
      </trkpt>
      <trkpt lat="45.5428" lon="4.76376">
        <ele>427</ele>
        <time>2015-05-27T13:42:06Z</time>
      </trkpt>
      <trkpt lat="45.54274" lon="4.7636">
        <ele>428</ele>
        <time>2015-05-27T13:42:11Z</time>
      </trkpt>
      <trkpt lat="45.54268" lon="4.76344">
        <ele>428</ele>
        <time>2015-05-27T13:42:16Z</time>
      </trkpt>
      <trkpt lat="45.54261" lon="4.76324">
        <ele>428</ele>
        <time>2015-05-27T13:42:22Z</time>
      </trkpt>
      <trkpt lat="45.54257" lon="4.7631">
        <ele>428</ele>
        <time>2015-05-27T13:42:26Z</time>
      </trkpt>
      <trkpt lat="45.54252" lon="4.76293">
        <ele>428</ele>
        <time>2015-05-27T13:42:31Z</time>
      </trkpt>
      <trkpt lat="45.54251" lon="4.76277">
        <ele>430</ele>
        <time>2015-05-27T13:42:36Z</time>
      </trkpt>
      <trkpt lat="45.54256" lon="4.7626">
        <ele>431</ele>
        <time>2015-05-27T13:42:44Z</time>
      </trkpt>
      <trkpt lat="45.54257" lon="4.76257">
        <ele>432</ele>
        <time>2015-05-27T13:42:46Z</time>
      </trkpt>
      <trkpt lat="45.5426" lon="4.76247">
        <ele>432</ele>
        <time>2015-05-27T13:42:51Z</time>
      </trkpt>
      <trkpt lat="45.54265" lon="4.76236">
        <ele>431</ele>
        <time>2015-05-27T13:42:56Z</time>
      </trkpt>
      <trkpt lat="45.54269" lon="4.76225">
        <ele>433</ele>
        <time>2015-05-27T13:43:01Z</time>
      </trkpt>
      <trkpt lat="45.5427" lon="4.76209">
        <ele>435</ele>
        <time>2015-05-27T13:43:09Z</time>
      </trkpt>
      <trkpt lat="45.5427" lon="4.76204">
        <ele>436</ele>
        <time>2015-05-27T13:43:11Z</time>
      </trkpt>
      <trkpt lat="45.5427" lon="4.76189">
        <ele>438</ele>
        <time>2015-05-27T13:43:18Z</time>
      </trkpt>
      <trkpt lat="45.5427" lon="4.76184">
        <ele>439</ele>
        <time>2015-05-27T13:43:21Z</time>
      </trkpt>
      <trkpt lat="45.54271" lon="4.76175">
        <ele>439</ele>
        <time>2015-05-27T13:43:26Z</time>
      </trkpt>
      <trkpt lat="45.54271" lon="4.76168">
        <ele>441</ele>
        <time>2015-05-27T13:43:31Z</time>
      </trkpt>
      <trkpt lat="45.54274" lon="4.76157">
        <ele>442</ele>
        <time>2015-05-27T13:43:36Z</time>
      </trkpt>
      <trkpt lat="45.54273" lon="4.76146">
        <ele>443</ele>
        <time>2015-05-27T13:43:43Z</time>
      </trkpt>
      <trkpt lat="45.54272" lon="4.76141">
        <ele>441</ele>
        <time>2015-05-27T13:43:46Z</time>
      </trkpt>
      <trkpt lat="45.54268" lon="4.76133">
        <ele>442</ele>
        <time>2015-05-27T13:43:51Z</time>
      </trkpt>
      <trkpt lat="45.54264" lon="4.76124">
        <ele>442</ele>
        <time>2015-05-27T13:43:56Z</time>
      </trkpt>
      <trkpt lat="45.5426" lon="4.76109">
        <ele>446</ele>
        <time>2015-05-27T13:44:04Z</time>
      </trkpt>
      <trkpt lat="45.54258" lon="4.76107">
        <ele>447</ele>
        <time>2015-05-27T13:44:06Z</time>
      </trkpt>
      <trkpt lat="45.54256" lon="4.76104">
        <ele>448</ele>
        <time>2015-05-27T13:44:11Z</time>
      </trkpt>
      <trkpt lat="45.54251" lon="4.76096">
        <ele>450</ele>
        <time>2015-05-27T13:44:16Z</time>
      </trkpt>
      <trkpt lat="45.54245" lon="4.76085">
        <ele>453</ele>
        <time>2015-05-27T13:44:23Z</time>
      </trkpt>
      <trkpt lat="45.54241" lon="4.76077">
        <ele>456</ele>
        <time>2015-05-27T13:44:28Z</time>
      </trkpt>
      <trkpt lat="45.54238" lon="4.76073">
        <ele>456</ele>
        <time>2015-05-27T13:44:31Z</time>
      </trkpt>
      <trkpt lat="45.54234" lon="4.76064">
        <ele>455</ele>
        <time>2015-05-27T13:44:36Z</time>
      </trkpt>
      <trkpt lat="45.5423" lon="4.76055">
        <ele>457</ele>
        <time>2015-05-27T13:44:41Z</time>
      </trkpt>
      <trkpt lat="45.54227" lon="4.76046">
        <ele>460</ele>
        <time>2015-05-27T13:44:46Z</time>
      </trkpt>
      <trkpt lat="45.54223" lon="4.76036">
        <ele>460</ele>
        <time>2015-05-27T13:44:51Z</time>
      </trkpt>
      <trkpt lat="45.54215" lon="4.7603">
        <ele>460</ele>
        <time>2015-05-27T13:45:00Z</time>
      </trkpt>
      <trkpt lat="45.54209" lon="4.76031">
        <ele>459</ele>
        <time>2015-05-27T13:45:04Z</time>
      </trkpt>
      <trkpt lat="45.54205" lon="4.76031">
        <ele>459</ele>
        <time>2015-05-27T13:45:06Z</time>
      </trkpt>
      <trkpt lat="45.54193" lon="4.76026">
        <ele>458</ele>
        <time>2015-05-27T13:45:13Z</time>
      </trkpt>
      <trkpt lat="45.54188" lon="4.76023">
        <ele>458</ele>
        <time>2015-05-27T13:45:16Z</time>
      </trkpt>
      <trkpt lat="45.54182" lon="4.76018">
        <ele>459</ele>
        <time>2015-05-27T13:45:21Z</time>
      </trkpt>
      <trkpt lat="45.54172" lon="4.76011">
        <ele>462</ele>
        <time>2015-05-27T13:45:29Z</time>
      </trkpt>
      <trkpt lat="45.5417" lon="4.76009">
        <ele>462</ele>
        <time>2015-05-27T13:45:31Z</time>
      </trkpt>
      <trkpt lat="45.54163" lon="4.76002">
        <ele>462</ele>
        <time>2015-05-27T13:45:36Z</time>
      </trkpt>
      <trkpt lat="45.54156" lon="4.75994">
        <ele>460</ele>
        <time>2015-05-27T13:45:41Z</time>
      </trkpt>
      <trkpt lat="45.5415" lon="4.75989">
        <ele>460</ele>
        <time>2015-05-27T13:45:46Z</time>
      </trkpt>
      <trkpt lat="45.54145" lon="4.7598">
        <ele>460</ele>
        <time>2015-05-27T13:45:51Z</time>
      </trkpt>
      <trkpt lat="45.54139" lon="4.75972">
        <ele>460</ele>
        <time>2015-05-27T13:45:56Z</time>
      </trkpt>
      <trkpt lat="45.54133" lon="4.75965">
        <ele>461</ele>
        <time>2015-05-27T13:46:01Z</time>
      </trkpt>
      <trkpt lat="45.54127" lon="4.75956">
        <ele>460</ele>
        <time>2015-05-27T13:46:06Z</time>
      </trkpt>
      <trkpt lat="45.54121" lon="4.75948">
        <ele>461</ele>
        <time>2015-05-27T13:46:11Z</time>
      </trkpt>
      <trkpt lat="45.54116" lon="4.75939">
        <ele>463</ele>
        <time>2015-05-27T13:46:16Z</time>
      </trkpt>
      <trkpt lat="45.54111" lon="4.75932">
        <ele>463</ele>
        <time>2015-05-27T13:46:21Z</time>
      </trkpt>
      <trkpt lat="45.54107" lon="4.75925">
        <ele>464</ele>
        <time>2015-05-27T13:46:26Z</time>
      </trkpt>
      <trkpt lat="45.54101" lon="4.75917">
        <ele>465</ele>
        <time>2015-05-27T13:46:33Z</time>
      </trkpt>
      <trkpt lat="45.54097" lon="4.75912">
        <ele>466</ele>
        <time>2015-05-27T13:46:40Z</time>
      </trkpt>
      <trkpt lat="45.54096" lon="4.75911">
        <ele>465</ele>
        <time>2015-05-27T13:46:41Z</time>
      </trkpt>
      <trkpt lat="45.54092" lon="4.75904">
        <ele>467</ele>
        <time>2015-05-27T13:46:46Z</time>
      </trkpt>
      <trkpt lat="45.54078" lon="4.7589">
        <ele>470</ele>
        <time>2015-05-27T13:46:55Z</time>
      </trkpt>
      <trkpt lat="45.54076" lon="4.75888">
        <ele>471</ele>
        <time>2015-05-27T13:46:56Z</time>
      </trkpt>
      <trkpt lat="45.54063" lon="4.75868">
        <ele>473</ele>
        <time>2015-05-27T13:47:01Z</time>
      </trkpt>
      <trkpt lat="45.54046" lon="4.75838">
        <ele>473</ele>
        <time>2015-05-27T13:47:06Z</time>
      </trkpt>
      <trkpt lat="45.54034" lon="4.75812">
        <ele>473</ele>
        <time>2015-05-27T13:47:11Z</time>
      </trkpt>
      <trkpt lat="45.54027" lon="4.75799">
        <ele>471</ele>
        <time>2015-05-27T13:47:16Z</time>
      </trkpt>
      <trkpt lat="45.54021" lon="4.75782">
        <ele>469</ele>
        <time>2015-05-27T13:47:23Z</time>
      </trkpt>
      <trkpt lat="45.54012" lon="4.75761">
        <ele>465</ele>
        <time>2015-05-27T13:47:28Z</time>
      </trkpt>
      <trkpt lat="45.53998" lon="4.75742">
        <ele>462</ele>
        <time>2015-05-27T13:47:34Z</time>
      </trkpt>
      <trkpt lat="45.53994" lon="4.75733">
        <ele>462</ele>
        <time>2015-05-27T13:47:36Z</time>
      </trkpt>
      <trkpt lat="45.53984" lon="4.75711">
        <ele>462</ele>
        <time>2015-05-27T13:47:41Z</time>
      </trkpt>
      <trkpt lat="45.53972" lon="4.7569">
        <ele>462</ele>
        <time>2015-05-27T13:47:46Z</time>
      </trkpt>
      <trkpt lat="45.53949" lon="4.75657">
        <ele>463</ele>
        <time>2015-05-27T13:47:55Z</time>
      </trkpt>
      <trkpt lat="45.53946" lon="4.75654">
        <ele>463</ele>
        <time>2015-05-27T13:47:56Z</time>
      </trkpt>
      <trkpt lat="45.5393" lon="4.75634">
        <ele>464</ele>
        <time>2015-05-27T13:48:01Z</time>
      </trkpt>
      <trkpt lat="45.53912" lon="4.75614">
        <ele>463</ele>
        <time>2015-05-27T13:48:06Z</time>
      </trkpt>
      <trkpt lat="45.53895" lon="4.75597">
        <ele>464</ele>
        <time>2015-05-27T13:48:11Z</time>
      </trkpt>
      <trkpt lat="45.53876" lon="4.75583">
        <ele>464</ele>
        <time>2015-05-27T13:48:16Z</time>
      </trkpt>
      <trkpt lat="45.53849" lon="4.75558">
        <ele>463</ele>
        <time>2015-05-27T13:48:24Z</time>
      </trkpt>
      <trkpt lat="45.53843" lon="4.75554">
        <ele>464</ele>
        <time>2015-05-27T13:48:26Z</time>
      </trkpt>
      <trkpt lat="45.53823" lon="4.75547">
        <ele>463</ele>
        <time>2015-05-27T13:48:31Z</time>
      </trkpt>
      <trkpt lat="45.53805" lon="4.75542">
        <ele>464</ele>
        <time>2015-05-27T13:48:36Z</time>
      </trkpt>
      <trkpt lat="45.53786" lon="4.75545">
        <ele>467</ele>
        <time>2015-05-27T13:48:41Z</time>
      </trkpt>
      <trkpt lat="45.53768" lon="4.7555">
        <ele>466</ele>
        <time>2015-05-27T13:48:46Z</time>
      </trkpt>
      <trkpt lat="45.53748" lon="4.75553">
        <ele>467</ele>
        <time>2015-05-27T13:48:51Z</time>
      </trkpt>
      <trkpt lat="45.5373" lon="4.75558">
        <ele>468</ele>
        <time>2015-05-27T13:48:56Z</time>
      </trkpt>
      <trkpt lat="45.53714" lon="4.75561">
        <ele>469</ele>
        <time>2015-05-27T13:49:01Z</time>
      </trkpt>
      <trkpt lat="45.53696" lon="4.75567">
        <ele>469</ele>
        <time>2015-05-27T13:49:06Z</time>
      </trkpt>
      <trkpt lat="45.53678" lon="4.75572">
        <ele>468</ele>
        <time>2015-05-27T13:49:11Z</time>
      </trkpt>
      <trkpt lat="45.53654" lon="4.75574">
        <ele>468</ele>
        <time>2015-05-27T13:49:19Z</time>
      </trkpt>
      <trkpt lat="45.5365" lon="4.7557">
        <ele>470</ele>
        <time>2015-05-27T13:49:21Z</time>
      </trkpt>
      <trkpt lat="45.53641" lon="4.7556">
        <ele>470</ele>
        <time>2015-05-27T13:49:26Z</time>
      </trkpt>
      <trkpt lat="45.53632" lon="4.75551">
        <ele>471</ele>
        <time>2015-05-27T13:49:31Z</time>
      </trkpt>
      <trkpt lat="45.53625" lon="4.75543">
        <ele>471</ele>
        <time>2015-05-27T13:49:36Z</time>
      </trkpt>
      <trkpt lat="45.53619" lon="4.75535">
        <ele>472</ele>
        <time>2015-05-27T13:49:41Z</time>
      </trkpt>
      <trkpt lat="45.53613" lon="4.75526">
        <ele>473</ele>
        <time>2015-05-27T13:49:46Z</time>
      </trkpt>
      <trkpt lat="45.53608" lon="4.75517">
        <ele>474</ele>
        <time>2015-05-27T13:49:51Z</time>
      </trkpt>
      <trkpt lat="45.53602" lon="4.75509">
        <ele>475</ele>
        <time>2015-05-27T13:49:56Z</time>
      </trkpt>
      <trkpt lat="45.53597" lon="4.75499">
        <ele>476</ele>
        <time>2015-05-27T13:50:01Z</time>
      </trkpt>
      <trkpt lat="45.5359" lon="4.75489">
        <ele>476</ele>
        <time>2015-05-27T13:50:06Z</time>
      </trkpt>
      <trkpt lat="45.53585" lon="4.75478">
        <ele>478</ele>
        <time>2015-05-27T13:50:11Z</time>
      </trkpt>
      <trkpt lat="45.5358" lon="4.75467">
        <ele>477</ele>
        <time>2015-05-27T13:50:16Z</time>
      </trkpt>
      <trkpt lat="45.53574" lon="4.75457">
        <ele>478</ele>
        <time>2015-05-27T13:50:21Z</time>
      </trkpt>
      <trkpt lat="45.53567" lon="4.75449">
        <ele>480</ele>
        <time>2015-05-27T13:50:26Z</time>
      </trkpt>
      <trkpt lat="45.53561" lon="4.7544">
        <ele>480</ele>
        <time>2015-05-27T13:50:31Z</time>
      </trkpt>
      <trkpt lat="45.53551" lon="4.75429">
        <ele>480</ele>
        <time>2015-05-27T13:50:37Z</time>
      </trkpt>
      <trkpt lat="45.53546" lon="4.75423">
        <ele>481</ele>
        <time>2015-05-27T13:50:41Z</time>
      </trkpt>
      <trkpt lat="45.53539" lon="4.75417">
        <ele>483</ele>
        <time>2015-05-27T13:50:46Z</time>
      </trkpt>
      <trkpt lat="45.53527" lon="4.75411">
        <ele>484</ele>
        <time>2015-05-27T13:50:54Z</time>
      </trkpt>
      <trkpt lat="45.53519" lon="4.75408">
        <ele>486</ele>
        <time>2015-05-27T13:51:00Z</time>
      </trkpt>
      <trkpt lat="45.53517" lon="4.75407">
        <ele>485</ele>
        <time>2015-05-27T13:51:01Z</time>
      </trkpt>
      <trkpt lat="45.53506" lon="4.75402">
        <ele>483</ele>
        <time>2015-05-27T13:51:08Z</time>
      </trkpt>
      <trkpt lat="45.53498" lon="4.75395">
        <ele>485</ele>
        <time>2015-05-27T13:51:13Z</time>
      </trkpt>
      <trkpt lat="45.53485" lon="4.75389">
        <ele>485</ele>
        <time>2015-05-27T13:51:19Z</time>
      </trkpt>
      <trkpt lat="45.53481" lon="4.75385">
        <ele>485</ele>
        <time>2015-05-27T13:51:21Z</time>
      </trkpt>
      <trkpt lat="45.53469" lon="4.75379">
        <ele>485</ele>
        <time>2015-05-27T13:51:26Z</time>
      </trkpt>
      <trkpt lat="45.53454" lon="4.7537">
        <ele>486</ele>
        <time>2015-05-27T13:51:32Z</time>
      </trkpt>
      <trkpt lat="45.53444" lon="4.75365">
        <ele>486</ele>
        <time>2015-05-27T13:51:36Z</time>
      </trkpt>
      <trkpt lat="45.53432" lon="4.75354">
        <ele>487</ele>
        <time>2015-05-27T13:51:41Z</time>
      </trkpt>
      <trkpt lat="45.53419" lon="4.75344">
        <ele>486</ele>
        <time>2015-05-27T13:51:46Z</time>
      </trkpt>
      <trkpt lat="45.53402" lon="4.75327">
        <ele>489</ele>
        <time>2015-05-27T13:51:54Z</time>
      </trkpt>
      <trkpt lat="45.53398" lon="4.75324">
        <ele>489</ele>
        <time>2015-05-27T13:51:56Z</time>
      </trkpt>
      <trkpt lat="45.5339" lon="4.75316">
        <ele>490</ele>
        <time>2015-05-27T13:52:01Z</time>
      </trkpt>
      <trkpt lat="45.53381" lon="4.75306">
        <ele>491</ele>
        <time>2015-05-27T13:52:06Z</time>
      </trkpt>
      <trkpt lat="45.53375" lon="4.75298">
        <ele>492</ele>
        <time>2015-05-27T13:52:11Z</time>
      </trkpt>
      <trkpt lat="45.53368" lon="4.75288">
        <ele>491</ele>
        <time>2015-05-27T13:52:16Z</time>
      </trkpt>
      <trkpt lat="45.53363" lon="4.75281">
        <ele>491</ele>
        <time>2015-05-27T13:52:21Z</time>
      </trkpt>
      <trkpt lat="45.53359" lon="4.75276">
        <ele>494</ele>
        <time>2015-05-27T13:52:26Z</time>
      </trkpt>
      <trkpt lat="45.53355" lon="4.7527">
        <ele>494</ele>
        <time>2015-05-27T13:52:31Z</time>
      </trkpt>
      <trkpt lat="45.53349" lon="4.75265">
        <ele>495</ele>
        <time>2015-05-27T13:52:36Z</time>
      </trkpt>
      <trkpt lat="45.53343" lon="4.75259">
        <ele>497</ele>
        <time>2015-05-27T13:52:41Z</time>
      </trkpt>
      <trkpt lat="45.53339" lon="4.75252">
        <ele>497</ele>
        <time>2015-05-27T13:52:46Z</time>
      </trkpt>
      <trkpt lat="45.53332" lon="4.75245">
        <ele>497</ele>
        <time>2015-05-27T13:52:51Z</time>
      </trkpt>
      <trkpt lat="45.53328" lon="4.75237">
        <ele>499</ele>
        <time>2015-05-27T13:52:56Z</time>
      </trkpt>
      <trkpt lat="45.53324" lon="4.75232">
        <ele>500</ele>
        <time>2015-05-27T13:53:01Z</time>
      </trkpt>
      <trkpt lat="45.53319" lon="4.75226">
        <ele>501</ele>
        <time>2015-05-27T13:53:06Z</time>
      </trkpt>
      <trkpt lat="45.53314" lon="4.75219">
        <ele>502</ele>
        <time>2015-05-27T13:53:11Z</time>
      </trkpt>
      <trkpt lat="45.53308" lon="4.75215">
        <ele>502</ele>
        <time>2015-05-27T13:53:16Z</time>
      </trkpt>
      <trkpt lat="45.53304" lon="4.7521">
        <ele>505</ele>
        <time>2015-05-27T13:53:21Z</time>
      </trkpt>
      <trkpt lat="45.53297" lon="4.75205">
        <ele>506</ele>
        <time>2015-05-27T13:53:26Z</time>
      </trkpt>
      <trkpt lat="45.53292" lon="4.75202">
        <ele>506</ele>
        <time>2015-05-27T13:53:31Z</time>
      </trkpt>
      <trkpt lat="45.53285" lon="4.75198">
        <ele>505</ele>
        <time>2015-05-27T13:53:36Z</time>
      </trkpt>
      <trkpt lat="45.53279" lon="4.75192">
        <ele>506</ele>
        <time>2015-05-27T13:53:41Z</time>
      </trkpt>
      <trkpt lat="45.53274" lon="4.75186">
        <ele>507</ele>
        <time>2015-05-27T13:53:46Z</time>
      </trkpt>
      <trkpt lat="45.53267" lon="4.75181">
        <ele>506</ele>
        <time>2015-05-27T13:53:51Z</time>
      </trkpt>
      <trkpt lat="45.53263" lon="4.75176">
        <ele>507</ele>
        <time>2015-05-27T13:53:56Z</time>
      </trkpt>
      <trkpt lat="45.53259" lon="4.75169">
        <ele>508</ele>
        <time>2015-05-27T13:54:01Z</time>
      </trkpt>
      <trkpt lat="45.53257" lon="4.75161">
        <ele>508</ele>
        <time>2015-05-27T13:54:06Z</time>
      </trkpt>
      <trkpt lat="45.53256" lon="4.75149">
        <ele>509</ele>
        <time>2015-05-27T13:54:13Z</time>
      </trkpt>
      <trkpt lat="45.53255" lon="4.75144">
        <ele>510</ele>
        <time>2015-05-27T13:54:16Z</time>
      </trkpt>
      <trkpt lat="45.53254" lon="4.75134">
        <ele>510</ele>
        <time>2015-05-27T13:54:22Z</time>
      </trkpt>
      <trkpt lat="45.53252" lon="4.75128">
        <ele>511</ele>
        <time>2015-05-27T13:54:26Z</time>
      </trkpt>
      <trkpt lat="45.53249" lon="4.7512">
        <ele>512</ele>
        <time>2015-05-27T13:54:31Z</time>
      </trkpt>
      <trkpt lat="45.53246" lon="4.75107">
        <ele>511</ele>
        <time>2015-05-27T13:54:38Z</time>
      </trkpt>
      <trkpt lat="45.53244" lon="4.75103">
        <ele>513</ele>
        <time>2015-05-27T13:54:41Z</time>
      </trkpt>
      <trkpt lat="45.53242" lon="4.75097">
        <ele>515</ele>
        <time>2015-05-27T13:54:46Z</time>
      </trkpt>
      <trkpt lat="45.53239" lon="4.75093">
        <ele>517</ele>
        <time>2015-05-27T13:54:51Z</time>
      </trkpt>
      <trkpt lat="45.53234" lon="4.75091">
        <ele>518</ele>
        <time>2015-05-27T13:54:56Z</time>
      </trkpt>
      <trkpt lat="45.53231" lon="4.75091">
        <ele>523</ele>
        <time>2015-05-27T13:55:01Z</time>
      </trkpt>
      <trkpt lat="45.53227" lon="4.7509">
        <ele>525</ele>
        <time>2015-05-27T13:55:06Z</time>
      </trkpt>
      <trkpt lat="45.53223" lon="4.75086">
        <ele>525</ele>
        <time>2015-05-27T13:55:11Z</time>
      </trkpt>
      <trkpt lat="45.53213" lon="4.75085">
        <ele>530</ele>
        <time>2015-05-27T13:55:20Z</time>
      </trkpt>
      <trkpt lat="45.53213" lon="4.75085">
        <ele>529</ele>
        <time>2015-05-27T13:55:21Z</time>
      </trkpt>
      <trkpt lat="45.53206" lon="4.7508">
        <ele>530</ele>
        <time>2015-05-27T13:55:26Z</time>
      </trkpt>
      <trkpt lat="45.53197" lon="4.75078">
        <ele>529</ele>
        <time>2015-05-27T13:55:32Z</time>
      </trkpt>
      <trkpt lat="45.53191" lon="4.75075">
        <ele>531</ele>
        <time>2015-05-27T13:55:36Z</time>
      </trkpt>
      <trkpt lat="45.53184" lon="4.75071">
        <ele>532</ele>
        <time>2015-05-27T13:55:41Z</time>
      </trkpt>
      <trkpt lat="45.53179" lon="4.75068">
        <ele>536</ele>
        <time>2015-05-27T13:55:46Z</time>
      </trkpt>
      <trkpt lat="45.53173" lon="4.75066">
        <ele>536</ele>
        <time>2015-05-27T13:55:51Z</time>
      </trkpt>
      <trkpt lat="45.53169" lon="4.75061">
        <ele>538</ele>
        <time>2015-05-27T13:55:56Z</time>
      </trkpt>
      <trkpt lat="45.53162" lon="4.75057">
        <ele>534</ele>
        <time>2015-05-27T13:56:01Z</time>
      </trkpt>
      <trkpt lat="45.53152" lon="4.75053">
        <ele>537</ele>
        <time>2015-05-27T13:56:06Z</time>
      </trkpt>
      <trkpt lat="45.53146" lon="4.75049">
        <ele>540</ele>
        <time>2015-05-27T13:56:11Z</time>
      </trkpt>
      <trkpt lat="45.53141" lon="4.75044">
        <ele>543</ele>
        <time>2015-05-27T13:56:16Z</time>
      </trkpt>
      <trkpt lat="45.53135" lon="4.75042">
        <ele>545</ele>
        <time>2015-05-27T13:56:21Z</time>
      </trkpt>
      <trkpt lat="45.53131" lon="4.75041">
        <ele>548</ele>
        <time>2015-05-27T13:56:26Z</time>
      </trkpt>
      <trkpt lat="45.53124" lon="4.75036">
        <ele>548</ele>
        <time>2015-05-27T13:56:31Z</time>
      </trkpt>
      <trkpt lat="45.53117" lon="4.75028">
        <ele>547</ele>
        <time>2015-05-27T13:56:36Z</time>
      </trkpt>
      <trkpt lat="45.53109" lon="4.75023">
        <ele>543</ele>
        <time>2015-05-27T13:56:41Z</time>
      </trkpt>
      <trkpt lat="45.53106" lon="4.75021">
        <ele>542</ele>
        <time>2015-05-27T13:56:46Z</time>
      </trkpt>
      <trkpt lat="45.531" lon="4.75018">
        <ele>544</ele>
        <time>2015-05-27T13:56:51Z</time>
      </trkpt>
      <trkpt lat="45.53094" lon="4.75018">
        <ele>545</ele>
        <time>2015-05-27T13:56:56Z</time>
      </trkpt>
      <trkpt lat="45.5309" lon="4.75014">
        <ele>547</ele>
        <time>2015-05-27T13:57:01Z</time>
      </trkpt>
      <trkpt lat="45.53086" lon="4.75011">
        <ele>552</ele>
        <time>2015-05-27T13:57:06Z</time>
      </trkpt>
      <trkpt lat="45.5308" lon="4.75011">
        <ele>552</ele>
        <time>2015-05-27T13:57:11Z</time>
      </trkpt>
      <trkpt lat="45.53072" lon="4.75013">
        <ele>551</ele>
        <time>2015-05-27T13:57:16Z</time>
      </trkpt>
      <trkpt lat="45.53063" lon="4.75014">
        <ele>551</ele>
        <time>2015-05-27T13:57:22Z</time>
      </trkpt>
      <trkpt lat="45.53052" lon="4.75012">
        <ele>551</ele>
        <time>2015-05-27T13:57:29Z</time>
      </trkpt>
      <trkpt lat="45.53048" lon="4.75011">
        <ele>555</ele>
        <time>2015-05-27T13:57:35Z</time>
      </trkpt>
      <trkpt lat="45.53036" lon="4.75007">
        <ele>557</ele>
        <time>2015-05-27T13:57:40Z</time>
      </trkpt>
      <trkpt lat="45.53035" lon="4.75007">
        <ele>557</ele>
        <time>2015-05-27T13:57:41Z</time>
      </trkpt>
      <trkpt lat="45.53025" lon="4.75006">
        <ele>556</ele>
        <time>2015-05-27T13:57:46Z</time>
      </trkpt>
      <trkpt lat="45.53015" lon="4.74999">
        <ele>556</ele>
        <time>2015-05-27T13:57:51Z</time>
      </trkpt>
      <trkpt lat="45.53008" lon="4.74992">
        <ele>557</ele>
        <time>2015-05-27T13:57:56Z</time>
      </trkpt>
      <trkpt lat="45.53003" lon="4.74986">
        <ele>559</ele>
        <time>2015-05-27T13:58:01Z</time>
      </trkpt>
      <trkpt lat="45.52991" lon="4.74983">
        <ele>562</ele>
        <time>2015-05-27T13:58:06Z</time>
      </trkpt>
      <trkpt lat="45.5298" lon="4.74976">
        <ele>560</ele>
        <time>2015-05-27T13:58:11Z</time>
      </trkpt>
      <trkpt lat="45.52969" lon="4.7497">
        <ele>558</ele>
        <time>2015-05-27T13:58:19Z</time>
      </trkpt>
      <trkpt lat="45.52966" lon="4.74969">
        <ele>558</ele>
        <time>2015-05-27T13:58:21Z</time>
      </trkpt>
      <trkpt lat="45.5296" lon="4.74964">
        <ele>558</ele>
        <time>2015-05-27T13:58:26Z</time>
      </trkpt>
      <trkpt lat="45.52957" lon="4.74961">
        <ele>558</ele>
        <time>2015-05-27T13:58:31Z</time>
      </trkpt>
      <trkpt lat="45.52949" lon="4.74957">
        <ele>556</ele>
        <time>2015-05-27T13:58:36Z</time>
      </trkpt>
      <trkpt lat="45.52938" lon="4.74953">
        <ele>556</ele>
        <time>2015-05-27T13:58:42Z</time>
      </trkpt>
      <trkpt lat="45.52934" lon="4.74953">
        <ele>559</ele>
        <time>2015-05-27T13:58:46Z</time>
      </trkpt>
      <trkpt lat="45.52912" lon="4.74945">
        <ele>554</ele>
        <time>2015-05-27T13:58:53Z</time>
      </trkpt>
      <trkpt lat="45.52907" lon="4.74941">
        <ele>555</ele>
        <time>2015-05-27T13:58:56Z</time>
      </trkpt>
      <trkpt lat="45.52893" lon="4.74932">
        <ele>559</ele>
        <time>2015-05-27T13:59:01Z</time>
      </trkpt>
      <trkpt lat="45.52875" lon="4.74917">
        <ele>560</ele>
        <time>2015-05-27T13:59:07Z</time>
      </trkpt>
      <trkpt lat="45.52852" lon="4.74892">
        <ele>558</ele>
        <time>2015-05-27T13:59:14Z</time>
      </trkpt>
      <trkpt lat="45.52848" lon="4.74883">
        <ele>559</ele>
        <time>2015-05-27T13:59:16Z</time>
      </trkpt>
      <trkpt lat="45.52838" lon="4.74855">
        <ele>558</ele>
        <time>2015-05-27T13:59:21Z</time>
      </trkpt>
      <trkpt lat="45.52824" lon="4.74829">
        <ele>558</ele>
        <time>2015-05-27T13:59:26Z</time>
      </trkpt>
      <trkpt lat="45.52808" lon="4.74805">
        <ele>557</ele>
        <time>2015-05-27T13:59:31Z</time>
      </trkpt>
      <trkpt lat="45.52799" lon="4.74779">
        <ele>559</ele>
        <time>2015-05-27T13:59:36Z</time>
      </trkpt>
      <trkpt lat="45.52787" lon="4.74756">
        <ele>561</ele>
        <time>2015-05-27T13:59:41Z</time>
      </trkpt>
      <trkpt lat="45.52771" lon="4.74736">
        <ele>561</ele>
        <time>2015-05-27T13:59:46Z</time>
      </trkpt>
      <trkpt lat="45.52752" lon="4.74703">
        <ele>561</ele>
        <time>2015-05-27T13:59:54Z</time>
      </trkpt>
      <trkpt lat="45.52745" lon="4.74684">
        <ele>562</ele>
        <time>2015-05-27T13:59:58Z</time>
      </trkpt>
      <trkpt lat="45.5273" lon="4.74671">
        <ele>561</ele>
        <time>2015-05-27T14:00:04Z</time>
      </trkpt>
      <trkpt lat="45.52725" lon="4.74666">
        <ele>560</ele>
        <time>2015-05-27T14:00:06Z</time>
      </trkpt>
      <trkpt lat="45.52702" lon="4.7465">
        <ele>558</ele>
        <time>2015-05-27T14:00:14Z</time>
      </trkpt>
      <trkpt lat="45.52698" lon="4.74644">
        <ele>559</ele>
        <time>2015-05-27T14:00:16Z</time>
      </trkpt>
      <trkpt lat="45.52691" lon="4.74636">
        <ele>559</ele>
        <time>2015-05-27T14:00:21Z</time>
      </trkpt>
      <trkpt lat="45.52691" lon="4.74636">
        <ele>559</ele>
        <time>2015-05-27T14:00:26Z</time>
      </trkpt>
      <trkpt lat="45.52692" lon="4.74636">
        <ele>557</ele>
        <time>2015-05-27T14:00:29Z</time>
      </trkpt>
      <trkpt lat="45.52692" lon="4.74636">
        <ele>558</ele>
        <time>2015-05-27T14:00:32Z</time>
      </trkpt>
      <trkpt lat="45.52693" lon="4.74636">
        <ele>558</ele>
        <time>2015-05-27T14:00:35Z</time>
      </trkpt>
      <trkpt lat="45.52693" lon="4.74636">
        <ele>560</ele>
        <time>2015-05-27T14:00:38Z</time>
      </trkpt>
      <trkpt lat="45.52693" lon="4.74637">
        <ele>561</ele>
        <time>2015-05-27T14:00:41Z</time>
      </trkpt>
    </trkseg>
  </trk>
</gpx>